createdAt,value
2023-04-21T00:00:10.759Z,91929.44
2023-04-21T00:02:41.518Z,91922.97
2023-04-21T00:05:12.622Z,91924.19
2023-04-21T00:07:41.659Z,91924.28
2023-04-21T00:10:12.464Z,91914.19
2023-04-21T00:12:41.405Z,91916.31
2023-04-21T00:15:11.302Z,91912.94
2023-04-21T00:17:41.336Z,91907.38
2023-04-21T00:20:11.642Z,91908.75
2023-04-21T00:22:40.062Z,91904.44
2023-04-21T00:25:09.937Z,91901.00
2023-04-21T00:27:38.621Z,91899.72
2023-04-21T00:30:08.947Z,91901.00
2023-04-21T00:32:37.458Z,91898.31
2023-04-21T00:35:08.205Z,91905.81
2023-04-21T00:37:36.741Z,91899.94
2023-04-21T00:40:06.071Z,91899.41
2023-04-21T00:42:34.573Z,91894.44
2023-04-21T00:45:03.185Z,91894.84
2023-04-21T00:47:31.749Z,91900.78
2023-04-21T00:50:00.773Z,91894.72
2023-04-21T00:52:31.249Z,91909.22
2023-04-21T00:55:00.766Z,91902.25
2023-04-21T00:57:29.745Z,91903.81
2023-04-21T00:59:58.238Z,91902.63
2023-04-21T01:02:28.549Z,91896.31
2023-04-21T01:04:57.896Z,91909.34
2023-04-21T01:07:27.284Z,91900.44
2023-04-21T01:09:57.139Z,91901.16
2023-04-21T01:12:25.771Z,91907.16
2023-04-21T01:14:54.342Z,91905.19
2023-04-21T01:17:22.957Z,91902.91
2023-04-21T01:19:53.389Z,91913.13
2023-04-21T01:22:23.336Z,91911.59
2023-04-21T01:24:51.876Z,91914.25
2023-04-21T01:27:22.842Z,91909.53
2023-04-21T01:29:53.545Z,91910.16
2023-04-21T01:32:24.910Z,91901.84
2023-04-21T01:34:53.740Z,91906.06
2023-04-21T01:37:28.006Z,91899.59
2023-04-21T01:39:59.686Z,91901.03
2023-04-21T01:42:30.709Z,91911.69
2023-04-21T01:44:59.579Z,91905.63
2023-04-21T01:47:28.275Z,91907.28
2023-04-21T01:49:56.789Z,91907.19
2023-04-21T01:52:26.956Z,91916.91
2023-04-21T01:54:56.000Z,91915.47
2023-04-21T01:57:24.491Z,91913.00
2023-04-21T01:59:52.957Z,91914.97
2023-04-21T02:02:21.548Z,91919.47
2023-04-21T02:04:50.138Z,91919.03
2023-04-21T02:07:18.869Z,91919.03
2023-04-21T02:09:48.936Z,91916.28
2023-04-21T02:12:17.680Z,91915.16
2023-04-21T02:14:47.399Z,91922.97
2023-04-21T02:17:16.727Z,91912.72
2023-04-21T02:19:45.577Z,91913.91
2023-04-21T02:22:14.816Z,91915.91
2023-04-21T02:24:43.759Z,91906.59
2023-04-21T02:27:13.611Z,91906.38
2023-04-21T02:29:42.123Z,91902.53
2023-04-21T02:32:22.264Z,91903.94
2023-04-21T02:34:54.327Z,91903.50
2023-04-21T02:37:22.852Z,91912.19
2023-04-21T02:39:51.304Z,91908.94
2023-04-21T02:42:21.243Z,91906.63
2023-04-21T02:44:50.012Z,91914.09
2023-04-21T02:47:18.567Z,91917.94
2023-04-21T02:49:47.082Z,91911.72
2023-04-21T02:52:16.124Z,91906.63
2023-04-21T02:54:44.563Z,91910.91
2023-04-21T02:57:13.073Z,91915.09
2023-04-21T02:59:42.935Z,91913.91
2023-04-21T03:02:11.683Z,91915.91
2023-04-21T03:04:40.454Z,91917.94
2023-04-21T03:07:14.313Z,91910.53
2023-04-21T03:09:42.858Z,91914.31
2023-04-21T03:12:11.372Z,91911.78
2023-04-21T03:14:39.863Z,91907.59
2023-04-21T03:17:09.727Z,91910.09
2023-04-21T03:19:38.476Z,91924.03
2023-04-21T03:22:07.038Z,91915.81
2023-04-21T03:24:35.741Z,91912.03
2023-04-21T03:27:04.184Z,91914.22
2023-04-21T03:29:32.880Z,91909.94
2023-04-21T03:32:01.950Z,91909.47
2023-04-21T03:34:31.854Z,91910.44
2023-04-21T03:37:00.553Z,91907.44
2023-04-21T03:39:29.022Z,91910.84
2023-04-21T03:41:58.164Z,91911.84
2023-04-21T03:44:28.794Z,91921.63
2023-04-21T03:46:57.922Z,91914.78
2023-04-21T03:49:26.952Z,91918.63
2023-04-21T03:51:56.882Z,91906.16
2023-04-21T03:54:25.383Z,91913.38
2023-04-21T03:56:54.381Z,91911.00
2023-04-21T03:59:23.216Z,91911.75
2023-04-21T04:01:51.837Z,91907.63
2023-04-21T04:04:20.665Z,91907.94
2023-04-21T04:06:49.325Z,91910.25
2023-04-21T04:09:19.643Z,91914.06
2023-04-21T04:11:48.769Z,91908.44
2023-04-21T04:14:17.461Z,91907.22
2023-04-21T04:16:45.993Z,91905.25
2023-04-21T04:19:14.507Z,91903.56
2023-04-21T04:21:43.199Z,91908.63
2023-04-21T04:24:12.301Z,91912.97
2023-04-21T04:26:42.814Z,91910.56
2023-04-21T04:29:11.845Z,91912.91
2023-04-21T04:31:40.511Z,91918.56
2023-04-21T04:34:09.829Z,91910.84
2023-04-21T04:36:38.376Z,91908.47
2023-04-21T04:39:09.604Z,91909.47
2023-04-21T04:41:38.454Z,91909.59
2023-04-21T04:44:09.049Z,91906.91
2023-04-21T04:46:37.689Z,91900.88
2023-04-21T04:49:06.788Z,91902.03
2023-04-21T04:51:35.570Z,91904.59
2023-04-21T04:54:04.175Z,91906.38
2023-04-21T04:56:33.073Z,91915.13
2023-04-21T04:59:01.608Z,91917.81
2023-04-21T05:01:31.564Z,91911.69
2023-04-21T05:04:00.301Z,91916.84
2023-04-21T05:06:29.737Z,91910.69
2023-04-21T05:08:58.438Z,91919.25
2023-04-21T05:11:26.974Z,91919.69
2023-04-21T05:13:55.769Z,91925.81
2023-04-21T05:16:24.874Z,91923.50
2023-04-21T05:18:54.988Z,91925.78
2023-04-21T05:21:28.431Z,91927.47
2023-04-21T05:23:57.595Z,91929.34
2023-04-21T05:26:27.673Z,91926.81
2023-04-21T05:28:57.181Z,91933.09
2023-04-21T05:31:26.049Z,91931.63
2023-04-21T05:33:56.741Z,91932.25
2023-04-21T05:36:26.035Z,91927.75
2023-04-21T05:38:55.198Z,91931.47
2023-04-21T05:41:24.808Z,91930.56
2023-04-21T05:43:53.283Z,91931.91
2023-04-21T05:46:21.818Z,91936.03
2023-04-21T05:48:50.312Z,91931.53
2023-04-21T05:51:20.233Z,91931.63
2023-04-21T05:53:48.700Z,91930.91
2023-04-21T05:56:17.185Z,91934.16
2023-04-21T05:58:45.662Z,91939.53
2023-04-21T06:01:16.560Z,91924.88
2023-04-21T06:03:45.227Z,91929.06
2023-04-21T06:06:15.165Z,91932.19
2023-04-21T06:08:45.657Z,91933.66
2023-04-21T06:11:14.185Z,91938.00
2023-04-21T06:13:43.671Z,91938.00
2023-04-21T06:16:12.388Z,91937.09
2023-04-21T06:18:41.830Z,91937.59
2023-04-21T06:21:11.105Z,91931.03
2023-04-21T06:23:39.630Z,91937.31
2023-04-21T06:26:09.688Z,91935.47
2023-04-21T06:28:40.112Z,91941.28
2023-04-21T06:31:09.949Z,91932.53
2023-04-21T06:33:38.638Z,91931.56
2023-04-21T06:36:09.104Z,91928.59
2023-04-21T06:38:39.995Z,91930.50
2023-04-21T06:41:11.783Z,91915.16
2023-04-21T06:43:40.312Z,91917.53
2023-04-21T06:46:08.914Z,91918.97
2023-04-21T06:48:37.456Z,91921.09
2023-04-21T06:51:06.366Z,91926.91
2023-04-21T06:53:34.856Z,91912.19
2023-04-21T06:56:03.372Z,91909.72
2023-04-21T06:58:33.244Z,91906.31
2023-04-21T07:01:03.013Z,91906.59
2023-04-21T07:03:31.617Z,91907.59
2023-04-21T07:06:00.202Z,91903.25
2023-04-21T07:08:28.796Z,91901.63
2023-04-21T07:10:58.840Z,91903.13
2023-04-21T07:13:27.344Z,91902.34
2023-04-21T07:15:57.421Z,91895.69
2023-04-21T07:18:26.187Z,91898.13
2023-04-21T07:20:54.919Z,91893.81
2023-04-21T07:23:23.391Z,91899.47
2023-04-21T07:25:51.873Z,91890.28
2023-04-21T07:28:20.604Z,91892.25
2023-04-21T07:30:49.352Z,91890.09
2023-04-21T07:33:19.258Z,91887.41
2023-04-21T07:35:48.085Z,91889.16
2023-04-21T07:38:16.641Z,91884.19
2023-04-21T07:40:45.348Z,91886.84
2023-04-21T07:43:14.322Z,91885.72
2023-04-21T07:45:42.805Z,91888.41
2023-04-21T07:48:11.341Z,91883.94
2023-04-21T07:50:42.654Z,91875.69
2023-04-21T07:53:11.897Z,91875.13
2023-04-21T07:55:40.635Z,91877.72
2023-04-21T07:58:10.514Z,91869.63
2023-04-21T08:00:39.211Z,91878.91
2023-04-21T08:03:08.086Z,91875.97
2023-04-21T08:05:40.143Z,91880.38
2023-04-21T08:08:10.924Z,91871.50
2023-04-21T08:10:39.385Z,91883.91
2023-04-21T08:13:08.950Z,91874.25
2023-04-21T08:15:37.555Z,91885.38
2023-04-21T08:18:06.301Z,91880.56
2023-04-21T08:20:35.483Z,91870.72
2023-04-21T08:23:04.017Z,91871.13
2023-04-21T08:25:33.939Z,91873.00
2023-04-21T08:28:02.500Z,91862.47
2023-04-21T08:33:21.167Z,91860.59
2023-04-21T08:36:02.298Z,91846.81
2023-04-21T08:38:32.675Z,91845.31
2023-04-21T08:41:02.810Z,91846.88
2023-04-21T08:43:31.845Z,91841.69
2023-04-21T08:46:01.715Z,91839.50
2023-04-21T08:48:32.937Z,91823.72
2023-04-21T08:51:02.312Z,91839.31
2023-04-21T08:53:30.888Z,91844.59
2023-04-21T08:56:09.962Z,91845.78
2023-04-21T08:58:41.937Z,91833.91
2023-04-21T09:01:11.246Z,91829.75
2023-04-21T09:03:40.002Z,91828.94
2023-04-21T09:06:12.698Z,91824.09
2023-04-21T09:08:46.065Z,91828.19
2023-04-21T09:11:16.858Z,91831.00
2023-04-21T09:13:46.878Z,91834.81
2023-04-21T09:16:21.937Z,91830.88
2023-04-21T09:18:52.175Z,91815.25
2023-04-21T09:21:23.319Z,91820.38
2023-04-21T09:23:55.890Z,91824.59
2023-04-21T09:26:24.803Z,91825.41
2023-04-21T09:28:55.078Z,91824.19
2023-04-21T09:31:25.694Z,91825.03
2023-04-21T09:34:00.263Z,91822.66
2023-04-21T09:36:32.076Z,91831.31
2023-04-21T09:39:29.009Z,91822.88
2023-04-21T09:41:51.581Z,91833.00
2023-04-21T09:44:21.740Z,91833.09
2023-04-21T09:46:52.480Z,91833.53
2023-04-21T09:49:24.818Z,91834.59
2023-04-21T09:54:32.284Z,91843.78
2023-04-21T09:57:02.827Z,91842.69
2023-04-21T09:59:37.526Z,91838.97
2023-04-21T10:02:08.733Z,91842.19
2023-04-21T10:04:39.390Z,91834.22
2023-04-21T10:07:08.818Z,91841.84
2023-04-21T10:09:43.403Z,91834.84
2023-04-21T10:12:12.916Z,91830.66
2023-04-21T10:14:42.785Z,91830.16
2023-04-21T10:17:12.433Z,91830.66
2023-04-21T10:19:53.236Z,91832.13
2023-04-21T10:22:29.881Z,91826.31
2023-04-21T10:25:00.363Z,91825.03
2023-04-21T10:27:36.941Z,91822.78
2023-04-21T10:30:23.565Z,91822.13
2023-04-21T10:33:05.141Z,91824.84
2023-04-21T10:36:01.409Z,91820.19
2023-04-21T10:38:36.538Z,91824.19
2023-04-21T10:41:30.050Z,91817.22
2023-04-21T10:44:00.762Z,91823.31
2023-04-21T10:46:39.562Z,91831.28
2023-04-21T10:49:10.048Z,91829.88
2023-04-21T10:52:06.819Z,91831.31
2023-04-21T10:54:43.708Z,91829.75
2023-04-21T10:57:13.936Z,91819.22
2023-04-21T10:59:43.501Z,91819.13
2023-04-21T11:02:16.041Z,91828.22
2023-04-21T11:04:49.172Z,91816.06
2023-04-21T11:07:20.380Z,91811.41
2023-04-21T11:09:51.308Z,91816.75
2023-04-21T11:12:20.302Z,91813.53
2023-04-21T11:14:49.520Z,91810.25
2023-04-21T11:17:21.589Z,91809.16
2023-04-21T11:19:54.286Z,91804.59
2023-04-21T11:22:28.616Z,91800.41
2023-04-21T11:24:59.071Z,91803.25
2023-04-21T11:27:30.200Z,91816.22
2023-04-21T11:29:59.219Z,91814.53
2023-04-21T11:32:29.567Z,91811.28
2023-04-21T11:34:58.161Z,91797.56
2023-04-21T11:37:28.292Z,91802.19
2023-04-21T11:40:00.925Z,91808.06
2023-04-21T11:42:30.104Z,91801.41
2023-04-21T11:44:59.286Z,91814.97
2023-04-21T11:47:30.161Z,91807.59
2023-04-21T11:50:00.834Z,91812.06
2023-04-21T11:52:33.152Z,91811.53
2023-04-21T11:55:04.526Z,91811.88
2023-04-21T11:57:34.734Z,91815.47
2023-04-21T12:00:08.194Z,91799.75
2023-04-21T12:02:38.161Z,91808.97
2023-04-21T12:05:09.399Z,91809.66
2023-04-21T12:07:40.647Z,91807.41
2023-04-21T12:10:12.763Z,91808.00
2023-04-21T12:12:42.378Z,91808.91
2023-04-21T12:15:13.175Z,91822.13
2023-04-21T12:17:47.011Z,91822.41
2023-04-21T12:20:18.639Z,91824.31
2023-04-21T12:22:47.722Z,91830.75
2023-04-21T12:25:16.681Z,91826.25
2023-04-21T12:27:50.208Z,91828.69
2023-04-21T12:30:18.940Z,91827.78
2023-04-21T12:32:49.034Z,91833.41
2023-04-21T12:35:17.891Z,91828.56
2023-04-21T12:37:47.037Z,91830.34
2023-04-21T12:40:15.860Z,91832.84
2023-04-21T12:42:44.412Z,91832.34
2023-04-21T12:45:13.759Z,91837.31
2023-04-21T12:47:43.618Z,91829.97
2023-04-21T12:50:15.830Z,91836.72
2023-04-21T12:52:44.358Z,91849.28
2023-04-21T12:55:13.834Z,91854.59
2023-04-21T12:57:42.367Z,91855.94
2023-04-21T13:00:15.122Z,91853.09
2023-04-21T13:02:43.837Z,91858.31
2023-04-21T13:05:15.135Z,91853.75
2023-04-21T13:07:43.681Z,91847.88
2023-04-21T13:10:12.878Z,91851.13
2023-04-21T13:12:41.588Z,91850.03
2023-04-21T13:15:12.064Z,91847.75
2023-04-21T13:17:40.616Z,91841.38
2023-04-21T13:20:10.298Z,91844.81
2023-04-21T13:22:40.445Z,91843.91
2023-04-21T13:25:10.352Z,91838.88
2023-04-21T13:27:40.397Z,91841.13
2023-04-21T13:30:12.080Z,91842.22
2023-04-21T13:32:41.304Z,91845.13
2023-04-21T13:35:10.859Z,91835.28
2023-04-21T13:37:42.512Z,91829.88
2023-04-21T13:40:12.563Z,91832.81
2023-04-21T13:42:41.493Z,91836.84
2023-04-21T13:45:11.709Z,91826.19
2023-04-21T13:47:40.410Z,91828.88
2023-04-21T13:50:10.486Z,91822.28
2023-04-21T13:52:40.853Z,91827.41
2023-04-21T13:55:11.397Z,91824.34
2023-04-21T13:57:40.285Z,91823.53
2023-04-21T14:00:12.210Z,91822.88
2023-04-21T14:02:42.084Z,91820.59
2023-04-21T14:05:11.146Z,91819.28
2023-04-21T14:07:41.366Z,91817.22
2023-04-21T14:10:12.107Z,91812.66
2023-04-21T14:12:40.663Z,91819.22
2023-04-21T14:15:10.505Z,91820.81
2023-04-21T14:17:39.540Z,91815.59
2023-04-21T14:20:10.504Z,91814.59
2023-04-21T14:22:40.630Z,91814.03
2023-04-21T14:25:10.068Z,91810.88
2023-04-21T14:27:38.778Z,91825.88
2023-04-21T14:30:10.618Z,91809.13
2023-04-21T14:32:44.635Z,91813.25
2023-04-21T14:35:13.304Z,91809.50
2023-04-21T14:37:43.371Z,91806.59
2023-04-21T14:40:12.818Z,91797.31
2023-04-21T14:42:41.648Z,91810.09
2023-04-21T14:45:11.890Z,91813.13
2023-04-21T14:47:40.858Z,91803.25
2023-04-21T14:50:10.662Z,91812.88
2023-04-21T14:52:39.944Z,91810.03
2023-04-21T14:55:11.117Z,91814.63
2023-04-21T14:57:39.799Z,91811.00
2023-04-21T15:00:10.674Z,91807.75
2023-04-21T15:02:40.807Z,91810.25
2023-04-21T15:05:10.754Z,91807.19
2023-04-21T15:07:40.776Z,91804.81
2023-04-21T15:10:12.121Z,91815.94
2023-04-21T15:12:42.112Z,91818.03
2023-04-21T15:15:11.539Z,91813.97
2023-04-21T15:17:40.112Z,91816.09
2023-04-21T15:20:11.254Z,91811.34
2023-04-21T15:22:40.100Z,91818.25
2023-04-21T15:25:10.856Z,91824.97
2023-04-21T15:27:39.340Z,91822.34
2023-04-21T15:30:09.264Z,91826.25
2023-04-21T15:32:37.869Z,91818.72
2023-04-21T15:35:07.920Z,91820.91
2023-04-21T15:37:36.477Z,91833.47
2023-04-21T15:40:06.256Z,91827.28
2023-04-21T15:42:36.197Z,91834.09
2023-04-21T15:45:05.305Z,91830.50
2023-04-21T15:47:33.906Z,91825.34
2023-04-21T15:50:02.721Z,91834.94
2023-04-21T15:52:31.240Z,91836.56
2023-04-21T15:54:59.769Z,91826.00
2023-04-21T15:57:28.484Z,91829.38
2023-04-21T15:59:58.600Z,91826.41
2023-04-21T16:02:27.508Z,91827.25
2023-04-21T16:04:56.316Z,91825.84
2023-04-21T16:07:25.282Z,91816.97
2023-04-21T16:09:54.077Z,91814.34
2023-04-21T16:12:22.677Z,91810.97
2023-04-21T16:14:57.583Z,91820.44
2023-04-21T16:17:33.768Z,91818.00
2023-04-21T16:20:02.279Z,91810.19
2023-04-21T16:22:31.412Z,91811.03
2023-04-21T16:25:00.851Z,91819.34
2023-04-21T16:27:29.688Z,91819.66
2023-04-21T16:29:58.363Z,91817.13
2023-04-21T16:32:27.064Z,91814.34
2023-04-21T16:34:57.061Z,91822.81
2023-04-21T16:37:25.835Z,91822.00
2023-04-21T16:39:54.378Z,91807.38
2023-04-21T16:42:22.910Z,91814.09
2023-04-21T16:44:51.912Z,91811.53
2023-04-21T16:47:20.563Z,91814.06
2023-04-21T16:49:49.096Z,91810.25
2023-04-21T16:52:19.162Z,91802.81
2023-04-21T16:54:47.658Z,91808.09
2023-04-21T16:57:16.307Z,91811.97
2023-04-21T16:59:45.547Z,91808.97
2023-04-21T17:02:14.444Z,91812.91
2023-04-21T17:04:42.977Z,91820.50
2023-04-21T17:07:11.632Z,91816.72
2023-04-21T17:09:41.973Z,91814.00
2023-04-21T17:12:10.718Z,91810.00
2023-04-21T17:14:39.453Z,91804.81
2023-04-21T17:17:08.281Z,91821.75
2023-04-21T17:19:37.148Z,91808.59
2023-04-21T17:22:05.693Z,91799.00
2023-04-21T17:24:49.062Z,91795.31
2023-04-21T17:27:22.816Z,91798.22
2023-04-21T17:29:51.303Z,91797.41
2023-04-21T17:32:19.994Z,91801.38
2023-04-21T17:34:48.822Z,91796.13
2023-04-21T17:37:17.377Z,91804.50
2023-04-21T17:39:45.959Z,91794.25
2023-04-21T17:42:14.485Z,91792.63
2023-04-21T17:44:44.807Z,91794.88
2023-04-21T17:47:13.444Z,91793.81
2023-04-21T17:49:42.102Z,91792.97
2023-04-21T17:52:10.635Z,91798.63
2023-04-21T17:54:40.218Z,91800.72
2023-04-21T17:57:09.033Z,91799.78
2023-04-21T17:59:37.742Z,91794.72
2023-04-21T18:02:08.297Z,91800.06
2023-04-21T18:04:37.440Z,91797.34
2023-04-21T18:07:06.572Z,91800.81
2023-04-21T18:09:35.064Z,91809.09
2023-04-21T18:12:04.144Z,91816.06
2023-04-21T18:14:32.943Z,91805.09
2023-04-21T18:17:01.856Z,91811.66
2023-04-21T18:19:31.825Z,91815.53
2023-04-21T18:22:00.739Z,91807.25
2023-04-21T18:24:29.401Z,91815.94
2023-04-21T18:26:57.910Z,91808.75
2023-04-21T18:29:26.663Z,91818.75
2023-04-21T18:31:55.320Z,91821.75
2023-04-21T18:34:24.011Z,91826.91
2023-04-21T18:36:53.873Z,91833.47
2023-04-21T18:39:22.359Z,91822.94
2023-04-21T18:41:52.051Z,91824.75
2023-04-21T18:44:20.976Z,91830.34
2023-04-21T18:46:49.501Z,91837.63
2023-04-21T18:49:18.046Z,91837.06
2023-04-21T18:51:46.633Z,91835.47
2023-04-21T18:54:16.732Z,91845.56
2023-04-21T18:56:46.247Z,91843.13
2023-04-21T18:59:14.731Z,91846.47
2023-04-21T19:01:43.332Z,91849.19
2023-04-21T19:04:12.364Z,91845.97
2023-04-21T19:06:41.478Z,91850.22
2023-04-21T19:09:09.988Z,91849.59
2023-04-21T19:11:40.198Z,91852.25
2023-04-21T19:14:08.916Z,91846.88
2023-04-21T19:16:38.559Z,91852.63
2023-04-21T19:19:07.229Z,91848.09
2023-04-21T19:21:35.956Z,91846.31
2023-04-21T19:24:05.127Z,91862.47
2023-04-21T19:26:33.625Z,91850.75
2023-04-21T19:29:03.943Z,91852.03
2023-04-21T19:31:32.507Z,91854.66
2023-04-21T19:34:01.282Z,91852.75
2023-04-21T19:36:29.796Z,91854.97
2023-04-21T19:38:58.809Z,91858.50
2023-04-21T19:41:27.346Z,91860.31
2023-04-21T19:43:56.224Z,91855.00
2023-04-21T19:46:26.219Z,91858.00
2023-04-21T19:48:55.041Z,91860.78
2023-04-21T19:51:24.828Z,91867.06
2023-04-21T19:54:03.103Z,91864.94
2023-04-21T19:56:36.794Z,91872.09
2023-04-21T19:59:05.847Z,91866.28
2023-04-21T20:01:36.218Z,91862.72
2023-04-21T20:04:06.686Z,91874.44
2023-04-21T20:06:35.811Z,91868.56
2023-04-21T20:09:06.021Z,91871.09
2023-04-21T20:11:35.166Z,91878.34
2023-04-21T20:14:03.779Z,91880.22
2023-04-21T20:16:32.990Z,91881.09
2023-04-21T20:19:02.945Z,91881.19
2023-04-21T20:21:32.652Z,91881.38
2023-04-21T20:24:02.349Z,91886.75
2023-04-21T20:26:30.911Z,91885.09
2023-04-21T20:28:59.740Z,91888.69
2023-04-21T20:31:28.322Z,91889.09
2023-04-21T20:33:57.813Z,91891.41
2023-04-21T20:36:28.641Z,91880.97
2023-04-21T20:39:00.164Z,91885.22
2023-04-21T20:41:29.772Z,91886.03
2023-04-21T20:43:58.263Z,91882.25
2023-04-21T20:46:26.853Z,91891.03
2023-04-21T20:48:55.431Z,91888.72
2023-04-21T20:51:23.972Z,91884.56
2023-04-21T20:53:53.891Z,91895.28
2023-04-21T20:56:22.641Z,91887.50
2023-04-21T20:58:51.297Z,91883.78
2023-04-21T21:01:19.869Z,91887.63
2023-04-21T21:03:48.693Z,91889.53
2023-04-21T21:06:19.779Z,91899.16
2023-04-21T21:08:48.338Z,91899.53
2023-04-21T21:11:18.371Z,91898.38
2023-04-21T21:13:47.060Z,91899.13
2023-04-21T21:16:15.662Z,91894.53
2023-04-21T21:18:44.487Z,91893.78
2023-04-21T21:21:13.796Z,91894.53
2023-04-21T21:23:42.646Z,91896.81
2023-04-21T21:26:11.239Z,91900.28
2023-04-21T21:28:41.385Z,91890.31
2023-04-21T21:31:09.866Z,91896.84
2023-04-21T21:33:38.433Z,91900.66
2023-04-21T21:36:08.078Z,91891.47
2023-04-21T21:38:36.660Z,91892.22
2023-04-21T21:41:05.986Z,91900.69
2023-04-21T21:43:34.475Z,91896.06
2023-04-21T21:46:04.828Z,91896.44
2023-04-21T21:48:33.772Z,91893.00
2023-04-21T21:51:02.244Z,91890.69
2023-04-21T21:53:30.951Z,91895.69
2023-04-21T21:55:59.823Z,91907.56
2023-04-21T21:58:28.561Z,91906.81
2023-04-21T22:00:57.235Z,91898.00
2023-04-21T22:03:27.342Z,91892.63
2023-04-21T22:05:56.015Z,91885.31
2023-04-21T22:08:24.500Z,91888.03
2023-04-21T22:10:53.236Z,91889.53
2023-04-21T22:13:21.764Z,91889.94
2023-04-21T22:15:50.481Z,91888.38
2023-04-21T22:18:19.804Z,91895.66
2023-04-21T22:20:50.007Z,91896.44
2023-04-21T22:23:20.460Z,91892.63
2023-04-21T22:25:49.044Z,91887.25
2023-04-21T22:28:17.551Z,91899.13
2023-04-21T22:30:46.093Z,91896.06
2023-04-21T22:33:14.791Z,91890.69
2023-04-21T22:35:43.289Z,91909.47
2023-04-21T22:38:13.176Z,91897.22
2023-04-21T22:40:41.923Z,91904.47
2023-04-21T22:43:10.839Z,91901.38
2023-04-21T22:45:39.439Z,91903.34
2023-04-21T22:48:08.020Z,91911.69
2023-04-21T22:50:36.579Z,91908.56
2023-04-21T22:53:05.102Z,91901.31
2023-04-21T22:55:35.048Z,91897.50
2023-04-21T22:58:03.527Z,91901.72
2023-04-21T23:00:32.200Z,91897.94
2023-04-21T23:03:00.890Z,91898.28
2023-04-21T23:05:30.589Z,91896.75
2023-04-21T23:07:59.454Z,91896.41
2023-04-21T23:10:29.196Z,91894.13
2023-04-21T23:13:01.548Z,91892.91
2023-04-21T23:15:32.162Z,91900.59
2023-04-21T23:18:01.081Z,91892.50
2023-04-21T23:20:29.622Z,91893.28
2023-04-21T23:22:58.273Z,91895.84
2023-04-21T23:25:26.927Z,91893.59
2023-04-21T23:27:55.623Z,91892.84
2023-04-21T23:30:25.656Z,91895.16
2023-04-21T23:32:54.207Z,91893.63
2023-04-21T23:35:22.761Z,91892.09
2023-04-21T23:37:51.253Z,91892.09
2023-04-21T23:40:20.345Z,91882.47
2023-04-21T23:42:49.066Z,91885.16
2023-04-21T23:45:17.874Z,91873.38
2023-04-21T23:47:48.021Z,91890.53
2023-04-21T23:50:16.549Z,91876.78
2023-04-21T23:52:45.088Z,91871.88
2023-04-21T23:55:13.815Z,91879.88
2023-04-21T23:57:44.608Z,91886.38
